createdAt,value
2023-05-06T00:00:36.063Z,0.00
2023-05-06T00:01:36.053Z,0.00
2023-05-06T00:02:36.110Z,0.00
2023-05-06T00:03:36.191Z,0.00
2023-05-06T00:04:36.054Z,0.00
2023-05-06T00:05:36.012Z,0.00
2023-05-06T00:06:36.004Z,0.00
2023-05-06T00:07:35.996Z,0.00
2023-05-06T00:08:36.008Z,0.00
2023-05-06T00:09:35.971Z,0.00
2023-05-06T00:10:35.979Z,0.00
2023-05-06T00:11:36.019Z,0.00
2023-05-06T00:12:35.964Z,0.00
2023-05-06T00:13:35.923Z,0.00
2023-05-06T00:14:35.930Z,0.00
2023-05-06T00:15:35.946Z,0.00
2023-05-06T00:16:35.909Z,0.00
2023-05-06T00:17:35.936Z,0.00
2023-05-06T00:18:35.876Z,0.00
2023-05-06T00:19:35.881Z,0.00
2023-05-06T00:20:35.839Z,0.00
2023-05-06T00:21:35.834Z,0.00
2023-05-06T00:22:35.821Z,0.00
2023-05-06T00:23:35.807Z,0.00
2023-05-06T00:24:35.801Z,0.00
2023-05-06T00:25:35.805Z,0.00
2023-05-06T00:26:35.786Z,0.00
2023-05-06T00:27:35.761Z,0.00
2023-05-06T00:28:35.757Z,0.00
2023-05-06T00:29:35.744Z,0.00
2023-05-06T00:30:35.753Z,0.00
2023-05-06T00:31:35.776Z,0.00
2023-05-06T00:32:35.766Z,0.00
2023-05-06T00:33:35.694Z,0.00
2023-05-06T00:34:35.684Z,0.00
2023-05-06T00:35:35.671Z,0.00
2023-05-06T00:36:35.668Z,0.00
2023-05-06T00:37:35.647Z,0.00
2023-05-06T00:38:35.654Z,0.00
2023-05-06T00:39:35.638Z,0.00
2023-05-06T00:40:35.655Z,0.00
2023-05-06T00:41:35.661Z,0.00
2023-05-06T00:42:35.623Z,0.00
2023-05-06T00:43:35.632Z,0.00
2023-05-06T00:44:35.649Z,0.00
2023-05-06T00:45:35.636Z,0.00
2023-05-06T00:46:35.558Z,0.00
2023-05-06T00:47:35.664Z,0.00
2023-05-06T00:48:35.536Z,0.00
2023-05-06T00:49:35.549Z,0.00
2023-05-06T00:50:35.541Z,0.00
2023-05-06T00:51:35.514Z,0.00
2023-05-06T00:52:35.489Z,0.00
2023-05-06T00:53:42.274Z,0.00
2023-05-06T00:54:35.458Z,0.00
2023-05-06T00:55:35.458Z,0.00
2023-05-06T00:56:35.465Z,0.00
2023-05-06T00:57:35.437Z,0.00
2023-05-06T00:58:35.414Z,0.00
2023-05-06T00:59:35.416Z,0.00
2023-05-06T01:00:35.399Z,0.00
2023-05-06T01:01:35.540Z,0.00
2023-05-06T01:02:46.600Z,0.00
2023-05-06T01:03:35.495Z,0.00
2023-05-06T01:04:35.382Z,0.00
2023-05-06T01:05:35.347Z,0.00
2023-05-06T01:06:35.350Z,0.00
2023-05-06T01:07:35.344Z,0.00
2023-05-06T01:08:35.321Z,0.00
2023-05-06T01:09:35.314Z,0.00
2023-05-06T01:10:35.289Z,0.00
2023-05-06T01:11:35.281Z,0.00
2023-05-06T01:12:35.305Z,0.00
2023-05-06T01:13:35.273Z,0.00
2023-05-06T01:14:35.239Z,0.00
2023-05-06T01:15:35.232Z,0.00
2023-05-06T01:16:35.231Z,0.00
2023-05-06T01:17:35.218Z,0.00
2023-05-06T01:18:35.220Z,0.00
2023-05-06T01:19:35.219Z,0.00
2023-05-06T01:20:35.173Z,0.00
2023-05-06T01:21:35.207Z,0.00
2023-05-06T01:22:35.163Z,0.00
2023-05-06T01:23:35.154Z,0.00
2023-05-06T01:24:35.156Z,0.00
2023-05-06T01:25:35.121Z,0.00
2023-05-06T01:26:35.118Z,0.00
2023-05-06T01:27:35.114Z,0.00
2023-05-06T01:28:35.083Z,0.00
2023-05-06T01:29:35.097Z,0.00
2023-05-06T01:30:35.067Z,0.00
2023-05-06T01:31:35.129Z,0.00
2023-05-06T01:32:35.078Z,0.00
2023-05-06T01:33:35.030Z,0.00
2023-05-06T01:34:35.044Z,0.00
2023-05-06T01:35:35.007Z,0.00
2023-05-06T01:36:34.997Z,0.00
2023-05-06T01:37:34.990Z,0.00
2023-05-06T01:38:34.978Z,0.00
2023-05-06T01:39:34.961Z,0.00
2023-05-06T01:40:34.974Z,0.00
2023-05-06T01:41:34.986Z,0.00
2023-05-06T01:42:34.935Z,0.00
2023-05-06T01:43:34.924Z,0.00
2023-05-06T01:44:34.950Z,0.00
2023-05-06T01:45:34.895Z,0.00
2023-05-06T01:46:34.988Z,0.00
2023-05-06T01:47:34.994Z,0.00
2023-05-06T01:48:34.860Z,0.00
2023-05-06T01:49:34.864Z,0.00
2023-05-06T01:50:34.858Z,0.00
2023-05-06T01:51:34.848Z,0.00
2023-05-06T01:52:34.862Z,0.00
2023-05-06T01:53:34.816Z,0.00
2023-05-06T01:54:34.793Z,0.00
2023-05-06T01:55:34.794Z,0.00
2023-05-06T01:56:34.771Z,0.00
2023-05-06T01:57:34.786Z,0.00
2023-05-06T01:58:34.751Z,0.00
2023-05-06T01:59:34.749Z,0.00
2023-05-06T02:00:34.735Z,0.00
2023-05-06T02:01:34.748Z,0.00
2023-05-06T02:02:34.757Z,0.00
2023-05-06T02:03:34.831Z,0.00
2023-05-06T02:04:34.689Z,0.00
2023-05-06T02:05:34.684Z,0.00
2023-05-06T02:06:34.700Z,0.00
2023-05-06T02:07:34.662Z,0.00
2023-05-06T02:08:34.672Z,0.00
2023-05-06T02:09:34.639Z,0.00
2023-05-06T02:10:34.629Z,0.00
2023-05-06T02:11:34.623Z,0.00
2023-05-06T02:12:34.641Z,0.00
2023-05-06T02:13:34.597Z,0.00
2023-05-06T02:14:34.606Z,0.00
2023-05-06T02:15:34.568Z,0.00
2023-05-06T02:16:34.575Z,0.00
2023-05-06T02:17:34.578Z,0.00
2023-05-06T02:18:34.547Z,0.00
2023-05-06T02:19:34.543Z,0.00
2023-05-06T02:20:34.536Z,0.00
2023-05-06T02:21:34.510Z,0.00
2023-05-06T02:22:34.482Z,0.00
2023-05-06T02:23:34.490Z,0.00
2023-05-06T02:24:34.498Z,0.00
2023-05-06T02:25:34.464Z,0.00
2023-05-06T02:26:34.452Z,0.00
2023-05-06T02:27:34.445Z,0.00
2023-05-06T02:28:34.426Z,0.00
2023-05-06T02:29:34.418Z,0.00
2023-05-06T02:30:34.427Z,0.00
2023-05-06T02:31:34.429Z,0.00
2023-05-06T02:32:34.396Z,0.00
2023-05-06T02:33:34.371Z,0.00
2023-05-06T02:34:34.389Z,0.00
2023-05-06T02:35:34.349Z,0.00
2023-05-06T02:36:34.351Z,0.00
2023-05-06T02:37:34.328Z,0.00
2023-05-06T02:38:34.318Z,0.00
2023-05-06T02:39:34.314Z,0.00
2023-05-06T02:40:34.319Z,0.00
2023-05-06T02:41:34.317Z,0.00
2023-05-06T02:42:34.309Z,0.00
2023-05-06T02:43:34.274Z,0.00
2023-05-06T02:44:34.256Z,0.00
2023-05-06T02:45:34.304Z,0.00
2023-05-06T02:46:34.230Z,0.00
2023-05-06T02:47:34.302Z,0.00
2023-05-06T02:48:34.209Z,0.00
2023-05-06T02:49:34.210Z,0.00
2023-05-06T02:50:34.193Z,0.00
2023-05-06T02:51:34.186Z,0.00
2023-05-06T02:52:34.191Z,0.00
2023-05-06T02:53:34.184Z,0.00
2023-05-06T02:54:34.150Z,0.00
2023-05-06T02:55:34.144Z,0.00
2023-05-06T02:56:34.120Z,0.00
2023-05-06T02:57:34.117Z,0.00
2023-05-06T02:58:34.123Z,0.00
2023-05-06T02:59:34.088Z,0.00
2023-05-06T03:00:34.084Z,0.00
2023-05-06T03:01:34.121Z,0.00
2023-05-06T03:02:34.075Z,0.00
2023-05-06T03:03:34.066Z,0.00
2023-05-06T03:04:34.171Z,0.00
2023-05-06T03:05:34.038Z,0.00
2023-05-06T03:06:34.028Z,0.00
2023-05-06T03:07:34.009Z,0.00
2023-05-06T03:08:33.991Z,0.00
2023-05-06T03:09:33.993Z,0.00
2023-05-06T03:10:34.000Z,0.00
2023-05-06T03:11:33.965Z,0.00
2023-05-06T03:12:33.977Z,0.00
2023-05-06T03:13:33.974Z,0.00
2023-05-06T03:14:33.930Z,0.00
2023-05-06T03:15:33.951Z,0.00
2023-05-06T03:16:33.945Z,0.00
2023-05-06T03:17:34.034Z,0.00
2023-05-06T03:18:33.902Z,0.00
2023-05-06T03:19:33.874Z,0.00
2023-05-06T03:20:33.869Z,0.00
2023-05-06T03:21:33.904Z,0.00
2023-05-06T03:22:33.849Z,0.00
2023-05-06T03:23:33.838Z,0.00
2023-05-06T03:24:33.824Z,0.00
2023-05-06T03:25:33.813Z,0.00
2023-05-06T03:26:33.828Z,0.00
2023-05-06T03:27:33.800Z,0.00
2023-05-06T03:28:33.787Z,0.00
2023-05-06T03:29:33.774Z,0.00
2023-05-06T03:30:33.770Z,0.00
2023-05-06T03:31:33.798Z,0.00
2023-05-06T03:32:33.766Z,0.00
2023-05-06T03:33:33.758Z,0.00
2023-05-06T03:34:33.711Z,0.00
2023-05-06T03:35:33.731Z,0.00
2023-05-06T03:36:33.730Z,0.00
2023-05-06T03:37:33.711Z,0.00
2023-05-06T03:38:33.686Z,0.00
2023-05-06T03:41:01.300Z,0.00
2023-05-06T03:41:06.676Z,0.00
2023-05-06T03:42:08.594Z,0.00
2023-05-06T03:43:06.676Z,0.00
2023-05-06T03:44:06.648Z,0.00
2023-05-06T03:45:06.808Z,0.00
2023-05-06T03:46:06.682Z,0.00
2023-05-06T03:47:06.640Z,5.62
2023-05-06T03:48:06.754Z,5.62
2023-05-06T03:49:06.598Z,5.62
2023-05-06T03:50:06.590Z,5.62
2023-05-06T03:51:06.584Z,5.62
2023-05-06T03:52:06.645Z,5.62
2023-05-06T03:53:06.548Z,5.62
2023-05-06T03:54:06.534Z,5.62
2023-05-06T03:55:06.678Z,11.25
2023-05-06T03:56:06.523Z,11.25
2023-05-06T03:57:06.515Z,11.25
2023-05-06T03:58:06.609Z,11.25
2023-05-06T03:59:06.486Z,11.25
2023-05-06T04:00:06.492Z,11.25
2023-05-06T04:01:06.464Z,16.88
2023-05-06T04:02:06.475Z,16.88
2023-05-06T04:03:06.542Z,16.88
2023-05-06T04:04:06.515Z,16.88
2023-05-06T04:05:06.453Z,16.88
2023-05-06T04:06:06.413Z,22.50
2023-05-06T04:07:06.438Z,22.50
2023-05-06T04:08:06.397Z,22.50
2023-05-06T04:09:06.564Z,22.50
2023-05-06T04:10:06.404Z,28.12
2023-05-06T04:11:06.359Z,28.12
2023-05-06T04:12:06.427Z,28.12
2023-05-06T04:13:06.409Z,33.75
2023-05-06T04:14:06.394Z,33.75
2023-05-06T04:15:06.313Z,33.75
2023-05-06T04:16:06.380Z,39.38
2023-05-06T04:17:06.293Z,39.38
2023-05-06T04:18:06.337Z,39.38
2023-05-06T04:19:06.708Z,45.00
2023-05-06T04:20:06.262Z,45.00
2023-05-06T04:21:06.249Z,45.00
2023-05-06T04:22:06.269Z,45.00
2023-05-06T04:23:06.253Z,50.62
2023-05-06T04:24:06.246Z,50.62
2023-05-06T04:25:06.216Z,50.62
2023-05-06T04:26:06.215Z,50.62
2023-05-06T04:27:06.201Z,50.62
2023-05-06T04:28:06.167Z,56.25
2023-05-06T04:29:06.170Z,56.25
2023-05-06T04:30:06.263Z,61.88
2023-05-06T04:31:06.167Z,61.88
2023-05-06T04:32:06.285Z,67.50
2023-05-06T04:33:06.138Z,67.50
2023-05-06T04:34:06.129Z,67.50
2023-05-06T04:35:06.111Z,67.50
2023-05-06T04:36:06.161Z,73.12
2023-05-06T04:37:06.076Z,73.12
2023-05-06T04:38:06.110Z,73.12
2023-05-06T04:39:06.118Z,78.75
2023-05-06T04:40:06.185Z,78.75
2023-05-06T04:41:06.118Z,84.38
2023-05-06T04:42:06.101Z,84.38
2023-05-06T04:43:06.078Z,90.00
2023-05-06T04:44:06.075Z,90.00
2023-05-06T04:45:05.994Z,95.62
2023-05-06T04:46:06.095Z,95.62
2023-05-06T04:47:05.969Z,101.25
2023-05-06T04:48:05.987Z,101.25
2023-05-06T04:49:05.961Z,101.25
2023-05-06T04:50:05.928Z,101.25
2023-05-06T04:51:05.919Z,101.25
2023-05-06T04:52:05.932Z,106.88
2023-05-06T04:53:05.897Z,106.88
2023-05-06T04:54:06.080Z,106.88
2023-05-06T04:55:05.878Z,106.88
2023-05-06T04:56:05.883Z,106.88
2023-05-06T04:57:05.882Z,106.88
2023-05-06T04:58:05.843Z,112.50
2023-05-06T04:59:05.821Z,118.12
2023-05-06T05:00:05.819Z,118.12
2023-05-06T05:01:05.925Z,118.12
2023-05-06T05:02:05.838Z,123.75
2023-05-06T05:03:05.880Z,123.75
2023-05-06T05:04:05.773Z,129.38
2023-05-06T05:05:05.768Z,129.38
2023-05-06T05:06:05.786Z,135.00
2023-05-06T05:07:05.781Z,140.62
2023-05-06T05:08:05.749Z,140.62
2023-05-06T05:09:05.719Z,140.62
2023-05-06T05:10:05.701Z,146.25
2023-05-06T05:11:05.699Z,146.25
2023-05-06T05:12:05.693Z,146.25
2023-05-06T05:13:05.737Z,151.88
2023-05-06T05:14:05.678Z,151.88
2023-05-06T05:15:05.654Z,157.50
2023-05-06T05:16:05.634Z,168.75
2023-05-06T05:17:05.682Z,168.75
2023-05-06T05:18:05.670Z,168.75
2023-05-06T05:19:07.406Z,174.38
2023-05-06T05:20:05.599Z,180.00
2023-05-06T05:21:05.573Z,185.62
2023-05-06T05:22:05.575Z,191.25
2023-05-06T05:23:05.559Z,196.88
2023-05-06T05:24:05.657Z,196.88
2023-05-06T05:25:07.472Z,202.50
2023-05-06T05:26:05.526Z,208.12
2023-05-06T05:27:05.523Z,208.12
2023-05-06T05:28:05.582Z,208.12
2023-05-06T05:29:05.512Z,208.12
2023-05-06T05:30:05.501Z,202.50
2023-05-06T05:31:05.526Z,202.50
2023-05-06T05:32:05.467Z,208.12
2023-05-06T05:33:05.522Z,213.75
2023-05-06T05:34:05.432Z,213.75
2023-05-06T05:35:05.462Z,219.38
2023-05-06T05:36:05.421Z,219.38
2023-05-06T05:37:05.425Z,230.62
2023-05-06T05:38:05.398Z,230.62
2023-05-06T05:39:05.399Z,230.62
2023-05-06T05:40:05.403Z,225.00
2023-05-06T05:41:05.358Z,219.38
2023-05-06T05:42:05.355Z,225.00
2023-05-06T05:43:05.339Z,230.62
2023-05-06T05:44:05.340Z,230.62
2023-05-06T05:45:05.325Z,236.25
2023-05-06T05:46:05.375Z,247.50
2023-05-06T05:47:05.294Z,253.12
2023-05-06T05:48:05.383Z,247.50
2023-05-06T05:49:05.272Z,253.12
2023-05-06T05:50:05.274Z,247.50
2023-05-06T05:51:05.291Z,253.12
2023-05-06T05:52:05.245Z,270.00
2023-05-06T05:53:05.234Z,270.00
2023-05-06T05:54:05.227Z,270.00
2023-05-06T05:55:05.254Z,270.00
2023-05-06T05:56:05.198Z,275.62
2023-05-06T05:57:05.212Z,275.62
2023-05-06T05:58:05.177Z,281.25
2023-05-06T05:59:05.203Z,286.88
2023-05-06T06:00:05.393Z,281.25
2023-05-06T06:01:05.143Z,281.25
2023-05-06T06:02:05.285Z,281.25
2023-05-06T06:03:05.244Z,270.00
2023-05-06T06:04:05.337Z,286.88
2023-05-06T06:05:05.155Z,292.50
2023-05-06T06:06:05.088Z,298.12
2023-05-06T06:07:05.084Z,298.12
2023-05-06T06:08:05.068Z,298.12
2023-05-06T06:09:05.071Z,303.75
2023-05-06T06:10:05.060Z,298.12
2023-05-06T06:11:05.064Z,292.50
2023-05-06T06:12:05.023Z,292.50
2023-05-06T06:13:05.074Z,292.50
2023-05-06T06:14:05.004Z,292.50
2023-05-06T06:15:04.997Z,298.12
2023-05-06T06:16:05.021Z,298.12
2023-05-06T06:17:05.019Z,303.75
2023-05-06T06:18:04.995Z,309.38
2023-05-06T06:19:04.951Z,303.75
2023-05-06T06:20:04.932Z,315.00
2023-05-06T06:21:04.926Z,315.00
2023-05-06T06:22:04.914Z,315.00
2023-05-06T06:23:04.934Z,331.88
2023-05-06T06:24:04.921Z,326.25
2023-05-06T06:25:04.891Z,331.88
2023-05-06T06:26:04.861Z,331.88
2023-05-06T06:27:04.861Z,337.50
2023-05-06T06:28:04.857Z,343.12
2023-05-06T06:29:04.857Z,348.75
2023-05-06T06:30:04.834Z,360.00
2023-05-06T06:31:04.811Z,365.62
2023-05-06T06:32:05.023Z,376.88
2023-05-06T06:33:04.834Z,360.00
2023-05-06T06:34:04.809Z,376.88
2023-05-06T06:35:04.775Z,388.12
2023-05-06T06:36:04.768Z,393.75
2023-05-06T06:37:06.234Z,388.12
2023-05-06T06:38:04.771Z,388.12
2023-05-06T06:39:04.723Z,405.00
2023-05-06T06:40:04.741Z,393.75
2023-05-06T06:41:04.706Z,371.25
2023-05-06T06:42:04.736Z,388.12
2023-05-06T06:43:04.685Z,371.25
2023-05-06T06:44:04.678Z,399.38
2023-05-06T06:45:04.662Z,405.00
2023-05-06T06:46:04.706Z,410.62
2023-05-06T06:47:04.677Z,416.25
2023-05-06T06:48:04.666Z,410.62
2023-05-06T06:49:04.644Z,421.88
2023-05-06T06:50:04.614Z,405.00
2023-05-06T06:51:04.594Z,421.88
2023-05-06T06:52:04.609Z,421.88
2023-05-06T06:53:06.264Z,427.50
2023-05-06T06:54:11.333Z,438.75
2023-05-06T06:55:04.564Z,444.38
2023-05-06T06:56:04.541Z,421.88
2023-05-06T06:57:04.563Z,455.62
2023-05-06T06:58:04.527Z,466.88
2023-05-06T06:59:04.514Z,472.50
2023-05-06T07:00:04.506Z,450.00
2023-05-06T07:01:04.517Z,410.62
2023-05-06T07:02:04.508Z,376.88
2023-05-06T07:03:04.502Z,410.62
2023-05-06T07:04:06.630Z,438.75
2023-05-06T07:05:04.448Z,444.38
2023-05-06T07:06:04.434Z,455.62
2023-05-06T07:07:04.442Z,444.38
2023-05-06T07:08:04.405Z,455.62
2023-05-06T07:09:04.408Z,489.38
2023-05-06T07:10:04.673Z,483.75
2023-05-06T07:11:04.387Z,444.38
2023-05-06T07:12:04.391Z,483.75
2023-05-06T07:13:04.392Z,495.00
2023-05-06T07:14:04.349Z,495.00
2023-05-06T07:15:04.432Z,495.00
2023-05-06T07:16:04.332Z,500.62
2023-05-06T07:17:04.391Z,500.62
2023-05-06T07:18:04.349Z,472.50
2023-05-06T07:19:04.290Z,495.00
2023-05-06T07:20:04.279Z,483.75
2023-05-06T07:21:04.263Z,444.38
2023-05-06T07:22:04.256Z,466.88
2023-05-06T07:23:04.261Z,478.12
2023-05-06T07:24:04.263Z,506.25
2023-05-06T07:25:04.227Z,506.25
2023-05-06T07:26:04.212Z,478.12
2023-05-06T07:27:04.207Z,483.75
2023-05-06T07:28:04.197Z,461.25
2023-05-06T07:29:04.227Z,438.75
2023-05-06T07:30:04.170Z,455.62
2023-05-06T07:31:04.189Z,455.62
2023-05-06T07:32:04.144Z,483.75
2023-05-06T07:33:04.180Z,517.50
2023-05-06T07:34:04.229Z,483.75
2023-05-06T07:35:04.143Z,461.25
2023-05-06T07:36:04.105Z,455.62
2023-05-06T07:37:04.109Z,461.25
2023-05-06T07:38:04.106Z,455.62
2023-05-06T07:39:04.072Z,455.62
2023-05-06T07:40:04.075Z,438.75
2023-05-06T07:41:04.069Z,444.38
2023-05-06T07:42:04.081Z,444.38
2023-05-06T07:43:04.033Z,444.38
2023-05-06T07:44:04.026Z,444.38
2023-05-06T07:45:04.021Z,450.00
2023-05-06T07:46:04.112Z,472.50
2023-05-06T07:47:04.114Z,495.00
2023-05-06T07:48:04.039Z,506.25
2023-05-06T07:49:03.975Z,545.62
2023-05-06T07:50:03.956Z,579.38
2023-05-06T07:51:03.966Z,562.50
2023-05-06T07:52:03.958Z,618.75
2023-05-06T07:53:03.986Z,624.38
2023-05-06T07:54:03.908Z,568.12
2023-05-06T07:55:03.933Z,607.50
2023-05-06T07:56:03.913Z,641.25
2023-05-06T07:57:03.878Z,669.38
2023-05-06T07:58:03.924Z,641.25
2023-05-06T07:59:03.864Z,630.00
2023-05-06T08:00:03.834Z,680.62
2023-05-06T08:01:03.835Z,725.62
2023-05-06T08:02:03.922Z,714.38
2023-05-06T08:03:03.910Z,675.00
2023-05-06T08:04:03.850Z,680.62
2023-05-06T08:05:03.807Z,731.25
2023-05-06T08:06:03.784Z,742.50
2023-05-06T08:07:03.789Z,736.88
2023-05-06T08:08:03.764Z,618.75
2023-05-06T08:09:03.818Z,601.88
2023-05-06T08:10:03.739Z,663.75
2023-05-06T08:11:03.735Z,680.62
2023-05-06T08:12:03.731Z,686.25
2023-05-06T08:13:03.755Z,731.25
2023-05-06T08:14:03.685Z,776.25
2023-05-06T08:15:03.685Z,759.38
2023-05-06T08:16:03.739Z,787.50
2023-05-06T08:17:03.690Z,787.50
2023-05-06T08:18:10.371Z,770.62
2023-05-06T08:19:03.640Z,742.50
2023-05-06T08:20:03.632Z,765.00
2023-05-06T08:21:03.706Z,781.88
2023-05-06T08:22:03.599Z,748.12
2023-05-06T08:23:03.621Z,725.62
2023-05-06T08:24:03.583Z,742.50
2023-05-06T08:25:03.590Z,838.12
2023-05-06T08:26:03.550Z,877.50
2023-05-06T08:27:03.576Z,753.75
2023-05-06T08:28:03.581Z,590.62
2023-05-06T08:29:03.541Z,658.12
2023-05-06T08:30:03.533Z,798.75
2023-05-06T08:31:03.508Z,742.50
2023-05-06T08:32:03.538Z,708.75
2023-05-06T08:33:03.569Z,871.88
2023-05-06T08:34:03.475Z,911.25
2023-05-06T08:35:03.467Z,810.00
2023-05-06T08:36:03.455Z,736.88
2023-05-06T08:37:03.439Z,753.75
2023-05-06T08:38:03.454Z,843.75
2023-05-06T08:39:03.453Z,900.00
2023-05-06T08:40:03.413Z,866.25
2023-05-06T08:41:03.396Z,883.12
2023-05-06T08:42:03.391Z,871.88
2023-05-06T08:43:03.383Z,787.50
2023-05-06T08:44:03.373Z,675.00
2023-05-06T08:45:03.380Z,680.62
2023-05-06T08:46:03.348Z,736.88
2023-05-06T08:47:03.347Z,838.12
2023-05-06T08:48:03.332Z,832.50
2023-05-06T08:49:03.316Z,804.38
2023-05-06T08:50:03.302Z,697.50
2023-05-06T08:51:03.313Z,781.88
2023-05-06T08:52:03.278Z,922.50
2023-05-06T08:53:03.267Z,916.88
2023-05-06T08:54:03.259Z,950.62
2023-05-06T08:55:03.262Z,905.62
2023-05-06T08:56:03.234Z,759.38
2023-05-06T08:57:03.243Z,686.25
2023-05-06T08:58:03.234Z,703.12
2023-05-06T08:59:03.202Z,663.75
2023-05-06T09:00:03.195Z,641.25
2023-05-06T09:01:03.228Z,697.50
2023-05-06T09:02:03.229Z,826.88
2023-05-06T09:03:03.224Z,950.62
2023-05-06T09:04:03.180Z,793.12
2023-05-06T09:05:03.144Z,703.12
2023-05-06T09:06:03.127Z,652.50
2023-05-06T09:07:03.121Z,691.88
2023-05-06T09:08:03.103Z,736.88
2023-05-06T09:09:03.092Z,765.00
2023-05-06T09:10:03.114Z,826.88
2023-05-06T09:11:03.093Z,905.62
2023-05-06T09:12:03.068Z,748.12
2023-05-06T09:13:03.188Z,618.75
2023-05-06T09:14:03.033Z,686.25
2023-05-06T09:15:03.047Z,855.00
2023-05-06T09:16:03.021Z,1023.75
2023-05-06T09:17:03.110Z,1006.88
2023-05-06T09:18:03.056Z,826.88
2023-05-06T09:19:02.990Z,720.00
2023-05-06T09:20:03.016Z,691.88
2023-05-06T09:21:02.960Z,680.62
2023-05-06T09:22:02.951Z,652.50
2023-05-06T09:23:02.938Z,641.25
2023-05-06T09:24:02.946Z,624.38
2023-05-06T09:25:02.928Z,680.62
2023-05-06T09:26:02.933Z,748.12
2023-05-06T09:27:02.896Z,759.38
2023-05-06T09:28:02.892Z,736.88
2023-05-06T09:29:02.961Z,810.00
2023-05-06T09:30:02.889Z,922.50
2023-05-06T09:31:02.907Z,1018.12
2023-05-06T09:32:02.866Z,978.75
2023-05-06T09:33:02.918Z,787.50
2023-05-06T09:34:02.827Z,731.25
2023-05-06T09:35:02.811Z,815.62
2023-05-06T09:36:02.830Z,866.25
2023-05-06T09:37:02.840Z,826.88
2023-05-06T09:38:03.410Z,815.62
2023-05-06T09:39:02.765Z,770.62
2023-05-06T09:40:02.764Z,810.00
2023-05-06T09:41:02.743Z,888.75
2023-05-06T09:42:02.753Z,888.75
2023-05-06T09:43:02.758Z,866.25
2023-05-06T09:44:02.721Z,961.88
2023-05-06T09:45:02.707Z,866.25
2023-05-06T09:46:02.712Z,900.00
2023-05-06T09:47:02.681Z,776.25
2023-05-06T09:48:02.736Z,731.25
2023-05-06T09:49:02.660Z,736.88
2023-05-06T09:50:02.656Z,793.12
2023-05-06T09:51:02.634Z,810.00
2023-05-06T09:52:02.628Z,888.75
2023-05-06T09:53:02.634Z,967.50
2023-05-06T09:54:02.631Z,984.38
2023-05-06T09:55:02.636Z,911.25
2023-05-06T09:56:02.582Z,928.12
2023-05-06T09:57:02.573Z,888.75
2023-05-06T09:58:02.570Z,832.50
2023-05-06T09:59:02.548Z,798.75
2023-05-06T10:00:02.553Z,798.75
2023-05-06T10:01:02.545Z,787.50
2023-05-06T10:02:02.576Z,770.62
2023-05-06T10:03:02.618Z,759.38
2023-05-06T10:04:02.574Z,765.00
2023-05-06T10:05:02.739Z,821.25
2023-05-06T10:06:02.512Z,877.50
2023-05-06T10:07:02.467Z,821.25
2023-05-06T10:08:02.474Z,883.12
2023-05-06T10:09:02.469Z,900.00
2023-05-06T10:10:02.435Z,883.12
2023-05-06T10:11:02.547Z,877.50
2023-05-06T10:12:02.408Z,793.12
2023-05-06T10:13:02.419Z,804.38
2023-05-06T10:14:02.395Z,815.62
2023-05-06T10:15:02.376Z,810.00
2023-05-06T10:16:02.390Z,821.25
2023-05-06T10:17:02.375Z,838.12
2023-05-06T10:18:02.463Z,866.25
2023-05-06T10:19:02.334Z,871.88
2023-05-06T10:20:02.329Z,877.50
2023-05-06T10:21:02.331Z,888.75
2023-05-06T10:22:04.426Z,894.38
2023-05-06T10:23:02.293Z,883.12
2023-05-06T10:24:02.285Z,922.50
2023-05-06T10:25:02.265Z,928.12
2023-05-06T10:26:02.285Z,939.38
2023-05-06T10:27:02.247Z,978.75
2023-05-06T10:28:03.326Z,1220.62
2023-05-06T10:29:02.329Z,2053.12
2023-05-06T10:30:02.222Z,2621.25
2023-05-06T10:31:02.229Z,3060.00
2023-05-06T10:32:02.252Z,3386.25
2023-05-06T10:33:02.226Z,3408.75
2023-05-06T10:34:02.174Z,3375.00
2023-05-06T10:35:02.156Z,3138.75
2023-05-06T10:36:02.147Z,3470.62
2023-05-06T10:37:02.154Z,3459.38
2023-05-06T10:38:02.154Z,3268.12
2023-05-06T10:39:02.109Z,3116.25
2023-05-06T10:40:02.098Z,3481.88
2023-05-06T10:41:02.118Z,3819.38
2023-05-06T10:42:02.085Z,3678.75
2023-05-06T10:43:02.066Z,3701.25
2023-05-06T10:44:02.096Z,3841.88
2023-05-06T10:45:02.042Z,3881.25
2023-05-06T10:46:02.106Z,3577.50
2023-05-06T10:47:02.028Z,3650.62
2023-05-06T10:48:02.050Z,3785.62
2023-05-06T10:49:02.003Z,3813.75
2023-05-06T10:50:02.024Z,3616.88
2023-05-06T10:51:01.983Z,3493.12
2023-05-06T10:52:01.974Z,3796.88
2023-05-06T10:53:01.964Z,4050.00
2023-05-06T10:54:01.957Z,3948.75
2023-05-06T10:55:01.968Z,3571.88
2023-05-06T10:56:01.942Z,3898.12
2023-05-06T10:57:01.943Z,4078.12
2023-05-06T10:58:02.008Z,3976.88
2023-05-06T10:59:01.891Z,3667.50
2023-05-06T11:00:01.895Z,3808.12
2023-05-06T11:01:01.926Z,4241.25
2023-05-06T11:02:01.923Z,3920.62
2023-05-06T11:03:02.003Z,3909.38
2023-05-06T11:04:01.851Z,4162.50
2023-05-06T11:05:01.858Z,4083.75
2023-05-06T11:06:01.832Z,4089.38
2023-05-06T11:07:01.842Z,4252.50
2023-05-06T11:08:01.807Z,3943.12
2023-05-06T11:09:01.811Z,4156.88
2023-05-06T11:10:01.808Z,4078.12
2023-05-06T11:11:01.772Z,4010.62
2023-05-06T11:12:01.821Z,4033.12
2023-05-06T11:13:01.847Z,3971.25
2023-05-06T11:14:01.750Z,4061.25
2023-05-06T11:15:01.733Z,4117.50
2023-05-06T11:16:01.737Z,3926.25
2023-05-06T11:17:01.845Z,3791.25
2023-05-06T11:18:01.771Z,3583.12
2023-05-06T11:19:01.701Z,3560.62
2023-05-06T11:20:01.691Z,3521.25
2023-05-06T11:21:01.683Z,3808.12
2023-05-06T11:22:01.688Z,3926.25
2023-05-06T11:23:01.654Z,3864.38
2023-05-06T11:24:01.670Z,1074.38
2023-05-06T11:25:01.624Z,1895.62
2023-05-06T11:26:01.656Z,3993.75
2023-05-06T11:27:01.693Z,3965.62
2023-05-06T11:28:01.612Z,3993.75
2023-05-06T11:29:01.595Z,3796.88
2023-05-06T11:30:01.625Z,3043.12
2023-05-06T11:31:01.606Z,3375.00
2023-05-06T11:32:01.560Z,3037.50
2023-05-06T11:33:03.866Z,2795.62
2023-05-06T11:34:01.545Z,1389.38
2023-05-06T11:35:01.577Z,2671.88
2023-05-06T11:36:01.537Z,3583.12
2023-05-06T11:37:01.514Z,3673.12
2023-05-06T11:38:01.580Z,3633.75
2023-05-06T11:39:02.872Z,3577.50
2023-05-06T11:40:01.526Z,3847.50
2023-05-06T11:41:01.469Z,3915.00
2023-05-06T11:42:01.462Z,3875.62
2023-05-06T11:43:01.447Z,3583.12
2023-05-06T11:44:01.438Z,3875.62
2023-05-06T11:45:01.461Z,3971.25
2023-05-06T11:46:01.441Z,3740.62
2023-05-06T11:47:01.430Z,3847.50
2023-05-06T11:48:01.437Z,3712.50
2023-05-06T11:49:01.403Z,3268.12
2023-05-06T11:50:01.388Z,3256.88
2023-05-06T11:51:01.376Z,3009.38
2023-05-06T11:52:01.382Z,2576.25
2023-05-06T11:53:01.353Z,3583.12
2023-05-06T11:54:01.346Z,3690.00
2023-05-06T11:55:01.356Z,3723.75
2023-05-06T11:56:01.327Z,4072.50
2023-05-06T11:57:01.406Z,1282.50
2023-05-06T11:58:01.315Z,1912.50
2023-05-06T11:59:01.294Z,4269.38
2023-05-06T12:00:01.330Z,3988.12
2023-05-06T12:01:01.286Z,1980.00
2023-05-06T12:02:01.262Z,3330.00
2023-05-06T12:03:01.377Z,4156.88
2023-05-06T12:04:01.378Z,4179.38
2023-05-06T12:05:01.272Z,4162.50
2023-05-06T12:06:01.337Z,4095.00
2023-05-06T12:07:01.207Z,3948.75
2023-05-06T12:08:01.203Z,3611.25
2023-05-06T12:09:01.190Z,1535.62
2023-05-06T12:10:01.187Z,3622.50
2023-05-06T12:11:01.204Z,2891.25
2023-05-06T12:12:01.172Z,2092.50
2023-05-06T12:13:01.184Z,4201.88
2023-05-06T12:14:01.141Z,4128.75
2023-05-06T12:15:01.132Z,4072.50
2023-05-06T12:16:01.158Z,3909.38
2023-05-06T12:17:01.128Z,2694.38
2023-05-06T12:18:01.187Z,3667.50
2023-05-06T12:19:01.089Z,3729.38
2023-05-06T12:20:01.137Z,4241.25
2023-05-06T12:21:01.071Z,4179.38
2023-05-06T12:22:01.063Z,3588.75
2023-05-06T12:23:01.055Z,2863.12
2023-05-06T12:24:01.090Z,2671.88
2023-05-06T12:25:01.037Z,2941.88
2023-05-06T12:26:01.060Z,3037.50
2023-05-06T12:27:01.008Z,3290.62
2023-05-06T12:28:01.035Z,3521.25
2023-05-06T12:29:00.990Z,3886.88
2023-05-06T12:30:00.980Z,4021.88
2023-05-06T12:31:01.005Z,1653.75
2023-05-06T12:32:01.064Z,1423.12
2023-05-06T12:33:01.001Z,2030.62
2023-05-06T12:34:01.415Z,1428.75
2023-05-06T12:35:00.938Z,1546.88
2023-05-06T12:36:00.929Z,1625.62
2023-05-06T12:37:00.913Z,3661.88
2023-05-06T12:38:00.915Z,3560.62
2023-05-06T12:39:00.965Z,3420.00
2023-05-06T12:40:00.895Z,3616.88
2023-05-06T12:41:00.885Z,2750.62